createdAt,value
2023-04-03T00:01:24.418Z,0.67
2023-04-03T00:03:52.965Z,0.73
2023-04-03T00:06:21.692Z,0.50
2023-04-03T00:08:50.176Z,0.40
2023-04-03T00:11:19.006Z,0.90
2023-04-03T00:13:47.391Z,0.70
2023-04-03T00:16:17.221Z,0.50
2023-04-03T00:18:46.232Z,0.63
2023-04-03T00:21:16.713Z,0.60
2023-04-03T00:23:45.124Z,0.70
2023-04-03T00:26:13.669Z,0.50
2023-04-03T00:28:42.066Z,0.80
2023-04-03T00:31:10.570Z,0.87
2023-04-03T00:33:40.355Z,0.70
2023-04-03T00:36:10.165Z,0.70
2023-04-03T00:38:38.921Z,0.57
2023-04-03T00:41:07.643Z,0.43
2023-04-03T00:43:39.274Z,0.50
2023-04-03T00:46:07.720Z,0.43
2023-04-03T00:48:40.815Z,0.83
2023-04-03T00:51:15.030Z,0.60
2023-04-03T00:53:48.150Z,0.70
2023-04-03T00:56:19.561Z,0.77
2023-04-03T00:58:53.150Z,0.80
2023-04-03T01:01:24.990Z,0.73
2023-04-03T01:03:55.131Z,0.47
2023-04-03T01:06:28.463Z,0.60
2023-04-03T01:08:58.053Z,0.80
2023-04-03T01:11:26.347Z,0.60
2023-04-03T01:13:55.585Z,0.70
2023-04-03T01:16:24.346Z,0.67
2023-04-03T01:18:54.614Z,0.80
2023-04-03T01:22:05.005Z,0.63
2023-04-03T01:24:37.250Z,0.60
2023-04-03T01:27:08.054Z,0.70
2023-04-03T01:29:36.946Z,0.50
2023-04-03T01:32:07.103Z,0.90
2023-04-03T01:34:36.567Z,0.50
2023-04-03T01:37:05.060Z,0.53
2023-04-03T01:39:33.410Z,0.70
2023-04-03T01:42:01.847Z,0.60
2023-04-03T01:44:30.483Z,0.57
2023-04-03T01:46:58.766Z,0.60
2023-04-03T01:49:31.461Z,0.60
2023-04-03T01:51:59.716Z,0.53
2023-04-03T01:54:28.176Z,0.60
2023-04-03T01:56:56.674Z,0.60
2023-04-03T01:59:25.072Z,0.50
2023-04-03T02:01:53.440Z,0.50
2023-04-03T02:04:21.966Z,0.60
2023-04-03T02:06:51.766Z,0.40
2023-04-03T02:09:20.187Z,0.90
2023-04-03T02:11:48.614Z,0.70
2023-04-03T02:14:16.964Z,0.60
2023-04-03T02:16:45.459Z,0.60
2023-04-03T02:19:13.865Z,0.50
2023-04-03T02:21:42.149Z,0.77
2023-04-03T02:24:18.092Z,0.80
2023-04-03T02:26:46.517Z,0.77
2023-04-03T02:29:18.802Z,0.60
2023-04-03T02:31:47.186Z,0.80
2023-04-03T02:34:15.992Z,0.70
2023-04-03T02:36:44.370Z,0.50
2023-04-03T02:39:13.089Z,0.80
2023-04-03T02:41:42.818Z,0.87
2023-04-03T02:44:15.179Z,0.80
2023-04-03T02:46:43.699Z,0.70
2023-04-03T02:49:12.130Z,0.80
2023-04-03T02:51:40.548Z,0.70
2023-04-03T02:54:09.030Z,0.50
2023-04-03T02:56:37.591Z,0.70
2023-04-03T02:59:07.774Z,0.70
2023-04-03T03:01:36.987Z,0.53
2023-04-03T03:04:05.577Z,0.60
2023-04-03T03:06:33.947Z,0.50
2023-04-03T03:09:02.789Z,0.60
2023-04-03T03:11:31.381Z,0.97
2023-04-03T03:14:00.856Z,0.50
2023-04-03T03:16:30.668Z,0.60
2023-04-03T03:18:59.112Z,0.93
2023-04-03T03:21:27.631Z,0.70
2023-04-03T03:23:56.158Z,0.67
2023-04-03T03:26:24.840Z,0.40
2023-04-03T03:28:53.404Z,0.67
2023-04-03T03:31:21.835Z,0.47
2023-04-03T03:33:51.595Z,0.63
2023-04-03T03:36:19.969Z,0.53
2023-04-03T03:38:48.275Z,0.90
2023-04-03T03:41:16.811Z,0.83
2023-04-03T03:43:45.399Z,0.90
2023-04-03T03:46:13.705Z,0.60
2023-04-03T03:48:42.030Z,0.70
2023-04-03T03:51:12.074Z,0.50
2023-04-03T03:53:40.493Z,0.73
2023-04-03T03:56:09.341Z,0.90
2023-04-03T03:58:38.021Z,0.77
2023-04-03T04:01:16.140Z,0.80
2023-04-03T04:03:48.435Z,0.60
2023-04-03T04:06:19.021Z,0.50
2023-04-03T04:08:47.319Z,0.53
2023-04-03T04:11:15.736Z,0.70
2023-04-03T04:13:44.051Z,0.67
2023-04-03T04:16:12.466Z,0.80
2023-04-03T04:18:40.835Z,0.70
2023-04-03T04:21:09.141Z,0.80
2023-04-03T04:23:38.781Z,0.60
2023-04-03T04:26:06.993Z,0.50
2023-04-03T04:28:35.532Z,0.83
2023-04-03T04:31:04.000Z,0.60
2023-04-03T04:33:32.507Z,0.63
2023-04-03T04:36:00.998Z,1.27
2023-04-03T04:38:29.402Z,0.70
2023-04-03T04:40:59.429Z,0.80
2023-04-03T04:43:27.990Z,0.83
2023-04-03T04:46:04.131Z,0.57
2023-04-03T04:48:32.893Z,0.70
2023-04-03T04:51:04.684Z,0.57
2023-04-03T04:53:39.572Z,0.53
2023-04-03T04:56:09.782Z,0.90
2023-04-03T04:58:41.127Z,0.57
2023-04-03T05:01:13.508Z,0.50
2023-04-03T05:03:42.079Z,1.03
2023-04-03T05:06:10.442Z,0.60
2023-04-03T05:08:41.746Z,0.47
2023-04-03T05:11:11.393Z,0.40
2023-04-03T05:13:39.644Z,0.93
2023-04-03T05:16:08.471Z,0.50
2023-04-03T05:18:37.124Z,0.60
2023-04-03T05:21:05.756Z,0.70
2023-04-03T05:23:34.079Z,0.53
2023-04-03T05:26:02.390Z,0.70
2023-04-03T05:28:32.738Z,0.90
2023-04-03T05:31:01.492Z,0.77
2023-04-03T05:33:30.113Z,0.67
2023-04-03T05:35:58.451Z,0.77
2023-04-03T05:38:27.089Z,0.50
2023-04-03T05:40:55.643Z,0.90
2023-04-03T05:43:23.940Z,0.80
2023-04-03T05:45:54.523Z,0.50
2023-04-03T05:48:22.989Z,0.80
2023-04-03T05:50:51.275Z,0.70
2023-04-03T05:53:23.680Z,0.63
2023-04-03T05:55:52.040Z,0.70
2023-04-03T05:58:20.345Z,0.83
2023-04-03T06:00:49.471Z,0.43
2023-04-03T06:03:22.477Z,0.70
2023-04-03T06:05:51.155Z,0.60
2023-04-03T06:08:19.799Z,1.07
2023-04-03T06:10:48.820Z,0.50
2023-04-03T06:13:17.160Z,0.50
2023-04-03T06:15:45.504Z,0.77
2023-04-03T06:18:13.804Z,0.80
2023-04-03T06:20:43.529Z,0.47
2023-04-03T06:23:11.912Z,0.60
2023-04-03T06:25:40.878Z,0.57
2023-04-03T06:28:11.258Z,0.53
2023-04-03T06:30:39.878Z,0.40
2023-04-03T06:33:08.446Z,0.60
2023-04-03T06:35:37.681Z,0.60
2023-04-03T06:38:10.536Z,0.60
2023-04-03T06:40:39.670Z,0.60
2023-04-03T06:43:08.308Z,0.77
2023-04-03T06:45:37.597Z,0.73
2023-04-03T06:48:06.662Z,0.50
2023-04-03T06:50:35.050Z,0.60
2023-04-03T06:53:03.512Z,0.80
2023-04-03T06:55:33.158Z,0.60
2023-04-03T06:58:01.657Z,0.70
2023-04-03T07:00:30.219Z,0.80
2023-04-03T07:02:58.803Z,0.80
2023-04-03T07:05:27.552Z,0.50
2023-04-03T07:07:55.972Z,0.80
2023-04-03T07:10:24.315Z,0.40
2023-04-03T07:12:53.996Z,0.60
2023-04-03T07:15:23.014Z,0.50
2023-04-03T07:17:51.375Z,0.40
2023-04-03T07:20:19.861Z,0.50
2023-04-03T07:22:48.100Z,0.30
2023-04-03T07:25:16.782Z,0.73
2023-04-03T07:27:45.182Z,0.40
2023-04-03T07:30:16.189Z,0.50
2023-04-03T07:32:44.768Z,0.50
2023-04-03T07:35:13.412Z,0.60
2023-04-03T07:37:41.764Z,0.40
2023-04-03T07:40:11.091Z,0.40
2023-04-03T07:42:39.452Z,0.40
2023-04-03T07:45:09.665Z,0.57
2023-04-03T07:47:39.439Z,0.70
2023-04-03T07:50:09.122Z,0.50
2023-04-03T07:52:37.413Z,0.60
2023-04-03T07:55:07.570Z,0.40
2023-04-03T07:57:36.218Z,0.40
2023-04-03T08:00:05.751Z,0.50
2023-04-03T08:02:34.086Z,0.53
2023-04-03T08:05:03.777Z,0.40
2023-04-03T08:07:32.136Z,0.50
2023-04-03T08:10:00.457Z,0.50
2023-04-03T08:12:29.645Z,0.40
2023-04-03T08:14:58.013Z,0.43
2023-04-03T08:17:26.445Z,0.40
2023-04-03T08:19:54.745Z,0.50
2023-04-03T08:22:24.598Z,0.40
2023-04-03T08:24:59.058Z,0.40
2023-04-03T08:27:28.677Z,0.43
2023-04-03T08:29:57.961Z,0.50
2023-04-03T08:32:26.869Z,0.40
2023-04-03T08:34:55.551Z,0.30
2023-04-03T08:37:25.338Z,0.40
2023-04-03T08:39:54.458Z,0.50
2023-04-03T08:42:39.239Z,0.47
2023-04-03T08:45:14.380Z,0.40
2023-04-03T08:47:47.801Z,0.50
2023-04-03T08:50:20.382Z,0.40
2023-04-03T08:52:53.313Z,0.50
2023-04-03T08:55:27.869Z,0.40
2023-04-03T08:58:02.722Z,0.40
2023-04-03T09:00:36.901Z,0.40
2023-04-03T09:03:05.288Z,0.40
2023-04-03T09:05:44.151Z,0.40
2023-04-03T09:08:24.759Z,0.40
2023-04-03T09:10:58.320Z,0.40
2023-04-03T09:13:35.503Z,0.50
2023-04-03T09:16:07.803Z,0.40
2023-04-03T09:18:44.353Z,0.50
2023-04-03T09:21:22.965Z,0.60
2023-04-03T09:23:53.787Z,0.47
2023-04-03T09:26:27.120Z,0.40
2023-04-03T09:28:59.621Z,0.50
2023-04-03T09:31:30.816Z,0.40
2023-04-03T09:34:03.812Z,0.50
2023-04-03T09:36:47.730Z,0.40
2023-04-03T09:39:19.795Z,0.40
2023-04-03T09:41:59.944Z,0.50
2023-04-03T09:44:29.657Z,0.50
2023-04-03T09:46:58.194Z,0.50
2023-04-03T09:49:26.652Z,0.40
2023-04-03T09:51:57.689Z,0.60
2023-04-03T09:57:22.418Z,0.50
2023-04-03T10:00:00.598Z,0.50
2023-04-03T10:02:36.942Z,0.40
2023-04-03T10:05:09.841Z,0.43
2023-04-03T10:07:41.310Z,0.47
2023-04-03T10:10:26.622Z,0.37
2023-04-03T10:13:09.289Z,0.40
2023-04-03T10:15:43.653Z,0.40
2023-04-03T10:18:29.629Z,0.30
2023-04-03T10:21:06.093Z,0.40
2023-04-03T10:23:43.034Z,0.40
2023-04-03T10:26:18.346Z,0.40
2023-04-03T10:28:56.072Z,0.40
2023-04-03T10:31:31.811Z,0.40
2023-04-03T10:34:08.090Z,0.30
2023-04-03T10:36:43.556Z,0.50
2023-04-03T10:39:24.846Z,0.40
2023-04-03T10:42:15.964Z,0.40
2023-04-03T10:45:13.197Z,0.20
2023-04-03T10:47:49.055Z,0.40
2023-04-03T10:50:33.282Z,0.40
2023-04-03T10:53:10.509Z,0.30
2023-04-03T10:55:43.133Z,0.40
2023-04-03T10:58:23.066Z,0.40
2023-04-03T11:00:54.991Z,0.50
2023-04-03T11:03:33.322Z,0.40
2023-04-03T11:06:04.121Z,0.30
2023-04-03T11:08:39.230Z,0.30
2023-04-03T11:11:12.350Z,0.50
2023-04-03T11:13:45.377Z,0.40
2023-04-03T11:16:21.863Z,0.40
2023-04-03T11:18:53.570Z,0.60
2023-04-03T11:21:26.628Z,0.43
2023-04-03T11:24:03.263Z,0.40
2023-04-03T11:26:37.867Z,0.50
2023-04-03T11:29:11.223Z,0.40
2023-04-03T11:31:55.115Z,0.47
2023-04-03T11:34:35.572Z,0.40
2023-04-03T11:37:06.454Z,0.40
2023-04-03T11:39:39.597Z,0.40
2023-04-03T11:42:29.073Z,0.40
2023-04-03T11:45:19.236Z,0.40
2023-04-03T11:47:51.076Z,0.40
2023-04-03T11:50:45.542Z,0.50
2023-04-03T11:53:32.376Z,0.40
2023-04-03T11:56:06.315Z,0.40
2023-04-03T11:58:35.920Z,0.40
2023-04-03T12:01:07.887Z,0.40
2023-04-03T12:04:09.220Z,0.47
2023-04-03T12:07:22.166Z,0.30
2023-04-03T12:10:02.062Z,0.33
2023-04-03T12:12:40.376Z,0.50
2023-04-03T12:15:53.851Z,0.40
2023-04-03T12:18:59.655Z,0.40
2023-04-03T12:22:11.308Z,0.40
2023-04-03T12:24:41.446Z,0.40
2023-04-03T12:27:25.691Z,0.50
2023-04-03T12:30:00.209Z,0.30
2023-04-03T12:33:12.512Z,0.40
2023-04-03T12:35:48.853Z,0.40
2023-04-03T12:38:45.490Z,0.40
2023-04-03T12:41:26.647Z,0.40
2023-04-03T12:44:22.509Z,0.40
2023-04-03T12:46:53.259Z,0.50
2023-04-03T12:49:36.231Z,0.40
2023-04-03T12:52:08.570Z,0.40
2023-04-03T12:54:40.829Z,0.30
2023-04-03T12:57:14.174Z,0.40
2023-04-03T12:59:44.944Z,0.40
2023-04-03T13:02:24.536Z,0.40
2023-04-03T13:04:53.876Z,0.33
2023-04-03T13:07:26.694Z,0.30
2023-04-03T13:10:00.168Z,0.40
2023-04-03T13:12:31.161Z,0.30
2023-04-03T13:15:05.409Z,0.40
2023-04-03T13:17:35.221Z,0.30
2023-04-03T13:20:15.087Z,0.30
2023-04-03T13:22:50.911Z,0.40
2023-04-03T13:25:22.598Z,0.30
2023-04-03T13:27:53.861Z,0.30
2023-04-03T13:30:33.775Z,0.30
2023-04-03T13:33:05.385Z,0.40
2023-04-03T13:35:40.014Z,0.30
2023-04-03T13:38:24.233Z,0.30
2023-04-03T13:40:53.999Z,0.30
2023-04-03T13:43:25.442Z,0.33
2023-04-03T13:46:06.165Z,0.20
2023-04-03T13:48:41.048Z,0.30
2023-04-03T13:51:21.551Z,0.30
2023-04-03T13:53:52.677Z,0.37
2023-04-03T13:56:33.370Z,0.33
2023-04-03T13:59:08.168Z,0.30
2023-04-03T14:01:45.694Z,0.30
2023-04-03T14:04:19.415Z,0.20
2023-04-03T14:06:48.147Z,0.30
2023-04-03T14:09:17.373Z,0.23
2023-04-03T14:11:47.291Z,0.30
2023-04-03T14:14:18.323Z,0.30
2023-04-03T14:16:53.462Z,0.30
2023-04-03T14:19:24.661Z,0.30
2023-04-03T14:21:54.278Z,0.33
2023-04-03T14:24:23.538Z,0.30
2023-04-03T14:26:53.800Z,0.37
2023-04-03T14:29:23.178Z,0.30
2023-04-03T14:32:03.729Z,0.30
2023-04-03T14:34:40.149Z,0.30
2023-04-03T14:37:13.303Z,0.30
2023-04-03T14:39:42.685Z,0.20
2023-04-03T14:42:15.207Z,0.20
2023-04-03T14:44:43.817Z,0.20
2023-04-03T14:47:29.684Z,0.20
2023-04-03T14:50:00.557Z,0.20
2023-04-03T14:52:31.687Z,0.20
2023-04-03T14:55:01.528Z,0.20
2023-04-03T14:57:31.529Z,0.30
2023-04-03T15:00:02.133Z,0.20
2023-04-03T15:02:34.202Z,0.30
2023-04-03T15:05:05.198Z,0.20
2023-04-03T15:07:36.724Z,0.30
2023-04-03T15:10:16.025Z,0.20
2023-04-03T15:12:44.982Z,0.20
2023-04-03T15:15:13.531Z,0.20
2023-04-03T15:17:47.327Z,0.20
2023-04-03T15:20:17.930Z,0.20
2023-04-03T15:22:46.771Z,0.20
2023-04-03T15:25:15.094Z,0.20
2023-04-03T15:27:43.943Z,0.20
2023-04-03T15:30:17.733Z,0.20
2023-04-03T15:32:48.610Z,0.20
2023-04-03T15:35:17.347Z,0.30
2023-04-03T15:37:45.974Z,0.20
2023-04-03T15:40:14.819Z,0.20
2023-04-03T15:42:43.345Z,0.23
2023-04-03T15:45:12.093Z,0.20
2023-04-03T15:47:40.701Z,0.40
2023-04-03T15:50:11.622Z,0.20
2023-04-03T15:52:40.052Z,0.30
2023-04-03T15:55:08.896Z,0.20
2023-04-03T16:00:07.021Z,0.20
2023-04-03T16:02:36.588Z,0.20
2023-04-03T16:05:05.543Z,0.20
2023-04-03T16:07:35.238Z,0.30
2023-04-03T16:10:03.696Z,0.20
2023-04-03T16:12:32.109Z,0.30
2023-04-03T16:15:00.437Z,0.30
2023-04-03T16:17:29.383Z,0.20
2023-04-03T16:19:58.180Z,0.20
2023-04-03T16:22:28.240Z,0.37
2023-04-03T16:24:58.289Z,0.30
2023-04-03T16:27:28.661Z,0.30
2023-04-03T16:29:57.054Z,0.40
2023-04-03T16:32:26.545Z,0.40
2023-04-03T16:34:58.537Z,0.30
2023-04-03T16:37:27.968Z,0.30
2023-04-03T16:39:59.245Z,0.40
2023-04-03T16:42:27.860Z,0.50
2023-04-03T16:44:56.288Z,0.30
2023-04-03T16:47:24.781Z,0.30
2023-04-03T16:49:53.208Z,0.40
2023-04-03T16:52:21.648Z,0.20
2023-04-03T16:54:50.313Z,0.40
2023-04-03T16:57:21.561Z,0.30
2023-04-03T16:59:49.881Z,0.30
2023-04-03T17:02:18.213Z,0.30
2023-04-03T17:04:46.470Z,0.50
2023-04-03T17:07:14.950Z,0.40
2023-04-03T17:09:43.382Z,0.60
2023-04-03T17:12:15.274Z,0.40
2023-04-03T17:14:45.101Z,0.40
2023-04-03T17:17:13.870Z,0.40
2023-04-03T17:19:43.267Z,0.40
2023-04-03T17:22:12.660Z,0.40
2023-04-03T17:24:41.428Z,0.40
2023-04-03T17:27:09.911Z,0.40
2023-04-03T17:29:38.301Z,0.70
2023-04-03T17:32:08.367Z,0.30
2023-04-03T17:34:37.108Z,0.40
2023-04-03T17:37:05.667Z,0.37
2023-04-03T17:39:34.059Z,0.33
2023-04-03T17:42:02.776Z,0.40
2023-04-03T17:44:31.071Z,0.60
2023-04-03T17:47:00.127Z,0.40
2023-04-03T17:49:30.035Z,0.40
2023-04-03T17:51:58.937Z,0.30
2023-04-03T17:54:27.734Z,0.40
2023-04-03T17:56:56.170Z,0.43
2023-04-03T17:59:24.761Z,0.60
2023-04-03T18:01:53.470Z,0.40
2023-04-03T18:04:22.078Z,0.30
2023-04-03T18:06:54.252Z,0.40
2023-04-03T18:09:24.734Z,0.40
2023-04-03T18:11:54.358Z,0.50
2023-04-03T18:14:25.193Z,0.43
2023-04-03T18:16:53.612Z,0.57
2023-04-03T18:19:23.749Z,0.47
2023-04-03T18:21:56.728Z,0.40
2023-04-03T18:24:26.430Z,0.50
2023-04-03T18:26:59.205Z,0.30
2023-04-03T18:29:30.023Z,0.47
2023-04-03T18:31:59.617Z,0.40
2023-04-03T18:34:28.268Z,0.60
2023-04-03T18:36:58.041Z,0.50
2023-04-03T18:39:27.085Z,0.50
2023-04-03T18:41:56.285Z,0.40
2023-04-03T18:44:27.006Z,0.40
2023-04-03T18:46:56.990Z,0.50
2023-04-03T18:49:25.617Z,0.40
2023-04-03T18:51:54.069Z,0.47
2023-04-03T18:54:23.925Z,0.50
2023-04-03T18:56:52.481Z,0.40
2023-04-03T18:59:21.828Z,0.40
2023-04-03T19:01:50.584Z,0.43
2023-04-03T19:04:19.407Z,0.53
2023-04-03T19:06:47.824Z,0.40
2023-04-03T19:09:16.541Z,0.50
2023-04-03T19:11:46.333Z,0.50
2023-04-03T19:14:16.642Z,0.60
2023-04-03T19:16:45.779Z,0.50
2023-04-03T19:19:14.417Z,0.43
2023-04-03T19:21:42.885Z,0.50
2023-04-03T19:24:12.780Z,0.50
2023-04-03T19:26:41.741Z,0.50
2023-04-03T19:29:11.850Z,0.73
2023-04-03T19:31:41.015Z,0.70
2023-04-03T19:34:09.868Z,0.40
2023-04-03T19:36:38.533Z,0.40
2023-04-03T19:39:07.808Z,0.40
2023-04-03T19:41:38.221Z,0.40
2023-04-03T19:44:07.822Z,0.40
2023-04-03T19:46:37.889Z,0.50
2023-04-03T19:49:06.395Z,0.50
2023-04-03T19:51:34.841Z,0.60
2023-04-03T19:54:03.226Z,0.40
2023-04-03T19:56:32.550Z,0.60
2023-04-03T19:59:01.071Z,0.53
2023-04-03T20:01:30.970Z,0.60
2023-04-03T20:04:00.851Z,0.60
2023-04-03T20:06:29.278Z,0.60
2023-04-03T20:08:57.880Z,0.40
2023-04-03T20:11:26.966Z,0.53
2023-04-03T20:13:56.530Z,0.50
2023-04-03T20:16:26.171Z,0.57
2023-04-03T20:18:56.453Z,0.60
2023-04-03T20:21:30.790Z,0.50
2023-04-03T20:23:59.470Z,0.40
2023-04-03T20:26:30.291Z,0.30
2023-04-03T20:29:02.762Z,0.40
2023-04-03T20:31:33.982Z,0.60
2023-04-03T20:34:04.131Z,0.40
2023-04-03T20:36:34.690Z,0.50
2023-04-03T20:39:06.669Z,0.40
2023-04-03T20:41:41.590Z,0.40
2023-04-03T20:44:10.322Z,0.40
2023-04-03T20:46:52.197Z,0.40
2023-04-03T20:49:21.819Z,0.50
2023-04-03T20:51:52.750Z,0.50
2023-04-03T20:54:21.780Z,0.40
2023-04-03T20:56:50.473Z,0.33
2023-04-03T20:59:22.651Z,0.50
2023-04-03T21:01:51.238Z,0.40
2023-04-03T21:04:23.443Z,0.43
2023-04-03T21:07:29.271Z,0.40
2023-04-03T21:10:35.737Z,0.47
2023-04-03T21:13:42.295Z,0.37
2023-04-03T21:16:10.221Z,0.40
2023-04-03T21:18:59.531Z,0.70
2023-04-03T21:21:28.675Z,0.40
2023-04-03T21:23:57.542Z,0.30
2023-04-03T21:26:28.366Z,0.30
2023-04-03T21:28:59.582Z,0.50
2023-04-03T21:31:48.977Z,0.60
2023-04-03T21:34:22.618Z,0.37
2023-04-03T21:36:51.729Z,0.30
2023-04-03T21:39:23.293Z,0.50
2023-04-03T21:41:52.615Z,0.40
2023-04-03T21:44:20.998Z,0.67
2023-04-03T21:46:53.763Z,0.40
2023-04-03T21:49:24.509Z,0.47
2023-04-03T21:51:52.954Z,0.70
2023-04-03T21:54:21.631Z,0.60
2023-04-03T21:56:51.786Z,0.50
2023-04-03T21:59:20.470Z,0.30
2023-04-03T22:01:49.035Z,0.70
2023-04-03T22:04:17.553Z,0.50
2023-04-03T22:06:47.604Z,0.60
2023-04-03T22:09:16.118Z,0.43
2023-04-03T22:11:46.143Z,0.73
2023-04-03T22:14:14.545Z,0.57
2023-04-03T22:16:46.706Z,0.60
2023-04-03T22:19:15.236Z,0.60
2023-04-03T22:21:43.576Z,0.60
2023-04-03T22:24:13.512Z,0.63
2023-04-03T22:26:44.413Z,0.57
2023-04-03T22:29:13.563Z,0.30
2023-04-03T22:31:45.259Z,0.60
2023-04-03T22:34:13.808Z,0.40
2023-04-03T22:36:43.283Z,0.50
2023-04-03T22:39:15.302Z,0.53
2023-04-03T22:41:45.335Z,0.60
2023-04-03T22:44:13.869Z,0.50
2023-04-03T22:46:42.228Z,0.40
2023-04-03T22:49:10.692Z,0.57
2023-04-03T22:51:39.045Z,0.60
2023-04-03T22:54:07.586Z,0.80
2023-04-03T22:56:37.249Z,0.50
2023-04-03T22:59:05.691Z,0.57
2023-04-03T23:01:36.038Z,0.40
2023-04-03T23:04:05.863Z,0.50
2023-04-03T23:06:34.279Z,0.60
2023-04-03T23:09:05.704Z,0.80
2023-04-03T23:11:34.012Z,0.67
2023-04-03T23:14:04.227Z,0.80
2023-04-03T23:16:32.902Z,0.60
2023-04-03T23:19:01.474Z,0.40
2023-04-03T23:21:29.803Z,0.40
2023-04-03T23:23:58.371Z,0.60
2023-04-03T23:26:26.711Z,0.57
2023-04-03T23:28:54.999Z,0.67
2023-04-03T23:31:25.891Z,1.00
2023-04-03T23:33:54.391Z,0.80
2023-04-03T23:36:22.631Z,0.60
2023-04-03T23:38:51.027Z,0.60
2023-04-03T23:41:19.331Z,0.80
2023-04-03T23:43:47.605Z,0.70
2023-04-03T23:46:15.959Z,0.30
2023-04-03T23:48:45.749Z,0.70
2023-04-03T23:51:14.044Z,0.70
2023-04-03T23:53:42.274Z,0.50
2023-04-03T23:56:13.240Z,0.60
2023-04-03T23:58:41.609Z,0.73
